Time;durP1;ratioP1;P1;durP2;ratioP2;P2;SDS_P1;SDS_P2;PMS_P1;PMS_P2;Temp;Humidity;BMP_temperature;BMP_pressure;BME280_temperature;BME280_humidity;BME280_pressure;Samples;Min_cycle;Max_cycle;Signal;HPM_P1;HPM_P2
2022/11/15 00:02:43;;;;;;;38.45;24.18;;;;;;;5.92;79.31;102052.00;1730841;81;25923;-62
2022/11/15 00:05:28;;;;;;;35.75;23.07;;;;;;;6.01;79.26;102051.59;1759895;81;25707;-62
2022/11/15 00:08:14;;;;;;;35.85;22.73;;;;;;;6.10;79.28;102047.62;1759790;81;25780;-62
2022/11/15 00:11:01;;;;;;;35.28;21.68;;;;;;;6.07;78.65;102048.64;1759921;81;27482;-62
2022/11/15 00:13:47;;;;;;;42.25;22.52;;;;;;;6.13;79.06;102051.48;1759712;81;25746;-61
2022/11/15 00:16:33;;;;;;;34.75;22.32;;;;;;;6.21;79.09;102040.39;1759646;81;25833;-61
2022/11/15 00:19:17;;;;;;;33.75;20.82;;;;;;;6.22;78.86;102026.98;1741422;81;25690;-62
2022/11/15 00:22:03;;;;;;;34.10;21.17;;;;;;;6.22;78.71;102028.77;1734117;82;25547;-62
2022/11/15 00:24:48;;;;;;;40.43;23.07;;;;;;;6.17;78.30;102033.48;1733994;82;27563;-61
2022/11/15 00:27:34;;;;;;;36.35;23.32;;;;;;;6.14;78.46;102023.80;1733834;82;25793;-62
2022/11/15 00:30:20;;;;;;;37.85;23.02;;;;;;;6.23;78.93;102023.34;1733976;82;25806;-61
2022/11/15 00:33:06;;;;;;;37.83;22.80;;;;;;;6.32;78.98;102018.02;1733919;82;25859;-61
2022/11/15 00:35:51;;;;;;;39.20;23.45;;;;;;;6.34;78.71;102012.13;1734089;82;25830;-61
2022/11/15 00:38:39;;;;;;;35.50;22.82;;;;;;;6.30;78.35;102010.54;1733926;82;27545;-61
2022/11/15 00:41:24;;;;;;;37.25;23.67;;;;;;;6.26;78.29;101998.30;1733769;82;25468;-61
2022/11/15 00:44:09;;;;;;;39.73;24.67;;;;;;;6.20;78.07;101999.47;1733978;82;25504;-61
2022/11/15 00:46:54;;;;;;;45.92;23.38;;;;;;;6.15;78.14;101993.47;1733951;82;25840;-61
2022/11/15 00:49:40;;;;;;;43.98;25.05;;;;;;;6.14;78.20;101986.88;1733862;82;25772;-61
2022/11/15 00:52:26;;;;;;;43.95;24.43;;;;;;;6.14;78.28;101988.21;1734008;82;27495;-61
2022/11/15 00:55:16;;;;;;;38.88;23.98;;;;;;;6.15;78.33;101980.11;1727258;83;25795;-61
2022/11/15 00:58:01;;;;;;;37.20;23.67;;;;;;;6.15;78.28;101973.91;1727168;83;25932;-62
2022/11/15 01:00:47;;;;;;;40.88;23.22;;;;;;;6.16;78.13;101975.64;1727319;83;26395;-62
2022/11/15 01:03:36;;;;;;;31.57;21.65;;;;;;;6.16;77.99;101970.30;1726980;83;25831;-61
2022/11/15 01:06:21;;;;;;;31.97;21.62;;;;;;;6.10;77.84;101961.64;1732011;82;28461;-61
2022/11/15 01:09:07;;;;;;;31.90;20.77;;;;;;;6.06;77.87;101957.86;1731663;82;25856;-62
2022/11/15 01:11:53;;;;;;;31.15;21.20;;;;;;;6.01;77.82;101963.92;1732031;82;25713;-61
2022/11/15 01:14:38;;;;;;;34.90;21.37;;;;;;;6.02;77.92;101957.64;1731876;82;25776;-61
2022/11/15 01:17:24;;;;;;;30.45;20.62;;;;;;;6.05;78.04;101959.69;1731865;82;25707;-61
2022/11/15 01:20:10;;;;;;;30.65;20.40;;;;;;;6.11;78.33;101954.02;1732177;82;27587;-61
2022/11/15 01:22:55;;;;;;;33.65;20.97;;;;;;;6.17;78.30;101949.33;1733511;81;25778;-61
2022/11/15 01:25:40;;;;;;;33.33;20.40;;;;;;;6.21;78.46;101946.88;1733496;81;25744;-63
2022/11/15 01:28:25;;;;;;;32.85;20.55;;;;;;;6.26;78.65;101943.51;1733512;82;25753;-63
2022/11/15 01:31:18;;;;;;;29.37;19.42;;;;;;;6.34;78.72;101942.64;1733633;82;25984;-62
2022/11/15 01:34:04;;;;;;;29.30;20.65;;;;;;;6.40;78.73;101946.31;1733502;82;27553;-62
2022/11/15 01:36:49;;;;;;;32.85;20.75;;;;;;;6.46;78.75;101946.47;1733290;82;25726;-61
2022/11/15 01:39:34;;;;;;;34.60;21.05;;;;;;;6.52;78.78;101944.80;1733645;82;25792;-61
2022/11/15 01:42:20;;;;;;;33.33;18.92;;;;;;;6.55;78.62;101938.42;1733419;82;25739;-62
2022/11/15 01:45:10;;;;;;;36.98;19.82;;;;;;;6.54;78.47;101930.89;1733773;82;25908;-63
2022/11/15 01:47:56;;;;;;;34.35;19.65;;;;;;;6.54;78.46;101928.70;1733504;82;27868;-63
2022/11/15 01:50:41;;;;;;;33.25;20.92;;;;;;;6.53;78.49;101927.82;1733693;82;25736;-63
2022/11/15 01:53:27;;;;;;;30.45;19.12;;;;;;;6.55;78.52;101925.94;1748733;80;25758;-63
2022/11/15 01:56:18;;;;;;;31.73;19.07;;;;;;;6.58;78.42;101924.91;1751521;81;25791;-62
2022/11/15 01:59:06;;;;;;;27.98;18.30;;;;;;;6.61;78.28;101922.08;1767598;81;25662;-62
2022/11/15 02:01:52;;;;;;;31.65;19.55;;;;;;;6.61;78.24;101923.87;1767444;81;28485;-63
2022/11/15 02:04:44;;;;;;;31.02;21.37;;;;;;;6.58;78.01;101913.75;1767400;80;25826;-61
2022/11/15 02:07:32;;;;;;;31.42;19.67;;;;;;;6.60;78.20;101919.01;1767679;81;38335;-63
2022/11/15 02:10:22;;;;;;;34.88;20.95;;;;;;;6.66;78.42;101920.49;1743603;81;25518;-62
2022/11/15 02:13:08;;;;;;;32.42;19.73;;;;;;;6.67;78.35;101907.03;1767550;81;25858;-61
2022/11/15 02:16:08;;;;;;;36.17;20.10;;;;;;;6.69;78.29;101903.80;1767342;81;27474;-61
2022/11/15 02:19:06;;;;;;;32.48;21.60;;;;;;;6.65;78.10;101902.23;1747942;81;25732;-62
2022/11/15 02:22:27;;;;;;;33.63;20.88;;;;;;;6.66;78.34;101898.61;1751986;81;25726;-62
2022/11/15 02:25:42;;;;;;;36.23;22.73;;;;;;;6.66;77.98;101892.42;1732837;82;25797;-62
2022/11/15 02:29:05;;;;;;;38.23;22.50;;;;;;;6.63;78.10;101899.25;1752884;81;25793;-62
2022/11/15 02:32:06;;;;;;;35.40;21.80;;;;;;;6.62;78.33;101893.06;1752714;81;28405;-61
2022/11/15 02:34:57;;;;;;;37.42;20.90;;;;;;;6.60;78.25;101898.07;1752692;81;25742;-61
2022/11/15 02:37:59;;;;;;;37.10;21.20;;;;;;;6.65;78.41;101886.67;1752791;81;25762;-61
2022/11/15 02:41:06;;;;;;;39.10;21.20;;;;;;;6.69;78.35;101884.20;1752674;81;25779;-62
2022/11/15 02:44:01;;;;;;;38.48;21.90;;;;;;;6.74;78.40;101883.50;1752861;81;25994;-61
2022/11/15 02:47:12;;;;;;;40.15;22.55;;;;;;;6.75;78.41;101877.20;1752682;81;28334;-61
2022/11/15 02:50:08;;;;;;;36.23;21.17;;;;;;;6.72;78.30;101870.68;1752563;81;26127;-61
2022/11/15 02:52:55;;;;;;;34.27;22.00;;;;;;;6.72;78.07;101866.67;1756383;80;25785;-61
2022/11/15 02:55:47;;;;;;;33.63;23.20;;;;;;;6.69;77.82;101868.16;1781446;80;25753;-62
2022/11/15 02:58:40;;;;;;;41.50;24.98;;;;;;;6.66;77.86;101858.99;1781664;80;25953;-62
2022/11/15 03:01:36;;;;;;;40.43;25.08;;;;;;;6.65;77.94;101859.94;1781464;80;29637;-62
2022/11/15 03:04:30;;;;;;;40.73;25.65;;;;;;;6.63;77.70;101863.16;1781304;80;25852;-62
2022/11/15 03:07:26;;;;;;;42.30;25.50;;;;;;;6.58;77.58;101853.59;1781820;80;25728;-62
2022/11/15 03:10:51;;;;;;;41.13;25.50;;;;;;;6.55;77.58;101860.89;1767294;80;25853;-62
2022/11/15 03:14:20;;;;;;;42.25;27.55;;;;;;;6.53;77.62;101862.81;1781864;80;26093;-61
2022/11/15 03:17:24;;;;;;;43.92;26.23;;;;;;;6.48;77.74;101856.38;1781501;80;27515;-62
2022/11/15 03:20:14;;;;;;;41.13;27.82;;;;;;;6.46;77.59;101852.91;1732001;81;25704;-61
2022/11/15 03:23:09;;;;;;;46.13;28.87;;;;;;;6.40;77.90;101857.27;1752899;81;25782;-62
2022/11/15 03:25:56;;;;;;;47.67;26.40;;;;;;;6.37;77.80;101849.39;1733354;82;25953;-62
2022/11/15 03:28:59;;;;;;;44.88;26.27;;;;;;;6.34;77.84;101853.10;1752854;81;25810;-62
2022/11/15 03:31:49;;;;;;;42.62;27.20;;;;;;;6.37;77.93;101848.06;1721112;83;27589;-62
2022/11/15 03:34:49;;;;;;;42.08;25.57;;;;;;;6.38;78.08;101842.62;1721273;83;25779;-61
2022/11/15 03:37:56;;;;;;;43.23;26.30;;;;;;;6.39;78.33;101836.82;1721220;83;25791;-61
2022/11/15 03:41:04;;;;;;;39.92;24.63;;;;;;;6.42;78.63;101835.30;1733576;82;25699;-61
2022/11/15 03:43:57;;;;;;;40.33;24.40;;;;;;;6.48;79.07;101829.64;1752990;81;25757;-62
2022/11/15 03:47:06;;;;;;;43.60;25.17;;;;;;;6.51;79.02;101834.80;1721331;83;27497;-62
2022/11/15 03:49:58;;;;;;;44.30;26.15;;;;;;;6.56;79.21;101834.09;1721195;83;25687;-62
2022/11/15 03:52:47;;;;;;;48.10;25.02;;;;;;;6.62;79.25;101825.33;1769647;81;25708;-62
2022/11/15 03:55:34;;;;;;;44.67;25.43;;;;;;;6.66;79.18;101832.25;1734167;81;26438;-62
2022/11/15 03:58:19;;;;;;;43.63;25.72;;;;;;;6.70;79.31;101823.09;1753849;81;25782;-63
2022/11/15 04:01:06;;;;;;;44.42;27.10;;;;;;;6.69;79.19;101817.36;1754065;81;28433;-62
2022/11/15 04:03:52;;;;;;;50.38;29.42;;;;;;;6.67;79.13;101813.44;1754094;81;25738;-62
2022/11/15 04:06:37;;;;;;;48.15;28.73;;;;;;;6.66;79.26;101807.70;1754169;81;25715;-62
2022/11/15 04:09:22;;;;;;;52.13;30.70;;;;;;;6.69;79.16;101801.31;1754263;81;25668;-62
2022/11/15 04:12:07;;;;;;;44.77;27.62;;;;;;;6.68;79.36;101800.95;1754073;81;25784;-61
2022/11/15 04:15:06;;;;;;;40.38;25.45;;;;;;;6.70;79.46;101801.24;1754460;81;27378;-62
2022/11/15 04:17:46;;;;;;;56.13;31.85;;;;;;;6.75;79.58;101809.02;1752936;81;25769;-62
2022/11/15 04:26:46;;;;;;;39.20;22.77;;;;;;;6.87;79.28;101798.94;1741476;82;25719;-62
2022/11/15 04:29:35;;;;;;;42.80;24.90;;;;;;;6.89;79.30;101797.05;1741647;82;28261;-61
2022/11/15 04:32:20;;;;;;;38.88;24.05;;;;;;;6.92;79.09;101799.17;1741543;82;26470;-62
2022/11/15 04:35:06;;;;;;;37.90;23.60;;;;;;;6.94;79.00;101798.62;1741547;82;25688;-62
2022/11/15 04:37:54;;;;;;;40.23;22.73;;;;;;;6.94;78.90;101795.94;1741286;82;26542;-62
2022/11/15 04:40:40;;;;;;;43.00;23.50;;;;;;;6.94;78.91;101795.45;1741799;82;25534;-62
2022/11/15 04:43:25;;;;;;;37.65;23.00;;;;;;;6.93;78.80;101795.55;1741564;82;27533;-63
2022/11/15 04:46:12;;;;;;;40.05;24.40;;;;;;;6.92;78.79;101796.50;1741100;82;25686;-62
2022/11/15 04:48:59;;;;;;;42.60;23.05;;;;;;;6.92;78.80;101793.81;1741570;82;26448;-62
2022/11/15 04:51:45;;;;;;;39.83;22.40;;;;;;;6.93;79.01;101789.70;1741572;82;25726;-62
2022/11/15 04:54:30;;;;;;;52.83;23.57;;;;;;;6.98;79.11;101796.13;1766567;80;26105;-62
2022/11/15 04:57:17;;;;;;;50.28;23.83;;;;;;;7.00;78.97;101787.55;1773065;80;27566;-62
2022/11/15 05:00:06;;;;;;;47.67;25.08;;;;;;;7.00;78.67;101796.92;1773231;80;25699;-62
2022/11/15 05:05:59;;;;;;;38.10;23.12;;;;;;;7.02;78.65;101795.87;1730351;82;25697;-62
2022/11/15 05:08:44;;;;;;;45.20;25.72;;;;;;;7.00;78.47;101794.24;1730915;82;25880;-62
2022/11/15 05:11:29;;;;;;;55.55;24.85;;;;;;;6.97;78.20;101784.59;1730811;82;27480;-62
2022/11/15 05:14:15;;;;;;;52.85;26.33;;;;;;;6.93;78.10;101782.17;1730434;82;25651;-62
2022/11/15 05:17:00;;;;;;;51.80;28.77;;;;;;;6.89;78.07;101778.33;1730760;81;25904;-62
2022/11/15 05:19:45;;;;;;;51.88;28.20;;;;;;;6.85;78.16;101784.81;1763753;81;25794;-62
2022/11/15 05:22:31;;;;;;;52.78;27.82;;;;;;;6.83;78.02;101785.37;1770017;81;25749;-62
2022/11/15 05:25:16;;;;;;;72.17;29.75;;;;;;;6.80;77.89;101775.32;1762890;80;27622;-62
2022/11/15 05:28:01;;;;;;;65.97;33.08;;;;;;;6.77;78.03;101774.15;1756197;81;25798;-62
2022/11/15 05:30:46;;;;;;;70.47;32.95;;;;;;;6.76;78.05;101772.42;1756270;81;25592;-62
2022/11/15 05:33:33;;;;;;;70.70;32.03;;;;;;;6.76;78.13;101775.97;1756041;81;25821;-62
2022/11/15 05:36:37;;;;;;;75.67;33.28;;;;;;;6.73;78.05;101766.28;1756309;81;25832;-61
2022/11/15 05:39:23;;;;;;;61.00;32.48;;;;;;;6.69;78.06;101767.42;1756001;81;27552;-62
2022/11/15 05:42:15;;;;;;;53.63;26.15;;;;;;;6.69;78.33;101765.21;1755990;81;25728;-61
2022/11/15 05:45:03;;;;;;;53.80;25.65;;;;;;;6.71;78.40;101772.22;1756312;81;25779;-61
2022/11/15 05:47:50;;;;;;;50.33;25.20;;;;;;;6.70;78.51;101768.27;1734726;81;25753;-61
2022/11/15 05:50:38;;;;;;;45.80;27.07;;;;;;;6.71;78.93;101767.33;1756242;81;25731;-62
2022/11/15 05:53:26;;;;;;;150.95;30.55;;;;;;;6.71;79.01;101761.98;1740868;81;27478;-62
2022/11/15 05:56:12;;;;;;;73.75;26.68;;;;;;;6.74;79.28;101765.34;1709484;83;25744;-62
2022/11/15 05:58:58;;;;;;;45.52;23.55;;;;;;;6.75;79.38;101764.88;1706593;84;25740;-62
2022/11/15 06:01:44;;;;;;;64.58;24.75;;;;;;;6.75;79.51;101762.21;1706714;84;25748;-61
2022/11/15 06:04:29;;;;;;;55.52;23.77;;;;;;;6.80;79.49;101771.31;1706603;83;25795;-62
2022/11/15 06:07:14;;;;;;;57.08;23.60;;;;;;;6.88;79.69;101761.88;1706703;84;27563;-61
2022/11/15 06:09:59;;;;;;;48.15;21.93;;;;;;;6.94;79.44;101762.01;1706406;83;25773;-62
2022/11/15 06:12:45;;;;;;;70.25;27.30;;;;;;;6.98;79.32;101764.91;1706324;84;25718;-62
2022/11/15 06:15:33;;;;;;;62.08;26.48;;;;;;;7.01;79.11;101753.16;1706619;84;25771;-62
2022/11/15 06:18:18;;;;;;;63.73;22.60;;;;;;;7.07;79.22;101758.15;1706370;82;25748;-62
2022/11/15 06:21:05;;;;;;;50.78;19.30;;;;;;;7.15;78.86;101760.39;1706868;84;27546;-62
2022/11/15 06:23:50;;;;;;;72.65;23.00;;;;;;;7.20;78.55;101763.64;1707243;84;26064;-62
2022/11/15 06:26:35;;;;;;;36.15;17.10;;;;;;;7.28;78.33;101760.04;1736270;81;25818;-62
2022/11/15 06:29:20;;;;;;;37.23;14.63;;;;;;;7.33;77.28;101761.11;1738870;81;26290;-62
2022/11/15 06:32:05;;;;;;;28.17;12.85;;;;;;;7.36;74.83;101760.45;1738859;81;25649;-62
2022/11/15 06:34:50;;;;;;;42.75;13.95;;;;;;;7.43;73.77;101757.42;1738858;81;27486;-62
2022/11/15 06:37:36;;;;;;;27.90;13.32;;;;;;;7.48;73.84;101764.23;1738819;82;25561;-62
2022/11/15 06:40:22;;;;;;;28.07;13.13;;;;;;;7.54;73.87;101761.64;1738914;82;25787;-62
2022/11/15 06:43:07;;;;;;;31.15;13.68;;;;;;;7.60;73.03;101757.73;1738878;82;25766;-62
2022/11/15 06:45:53;;;;;;;23.25;11.55;;;;;;;7.65;71.15;101758.34;1739043;81;25826;-62
2022/11/15 06:48:38;;;;;;;24.05;12.28;;;;;;;7.65;70.31;101757.84;1741603;82;27553;-62
2022/11/15 06:51:23;;;;;;;16.27;11.35;;;;;;;7.69;70.61;101757.18;1733485;82;25760;-62
2022/11/15 06:54:08;;;;;;;26.27;13.10;;;;;;;7.72;70.21;101748.97;1757218;80;26621;-62
2022/11/15 06:56:53;;;;;;;16.10;11.30;;;;;;;7.79;70.20;101752.14;1736125;82;25901;-62
2022/11/15 06:59:39;;;;;;;22.07;10.95;;;;;;;7.83;69.08;101748.30;1736358;80;25821;-62
2022/11/15 07:02:24;;;;;;;21.73;11.15;;;;;;;7.83;67.40;101749.18;1738390;80;28322;-63
2022/11/15 07:05:10;;;;;;;19.60;11.12;;;;;;;7.84;67.77;101748.20;1742749;81;26575;-62
2022/11/15 07:07:57;;;;;;;22.93;10.40;;;;;;;7.89;67.63;101747.91;1728732;82;25876;-62
2022/11/15 07:10:42;;;;;;;13.35;9.45;;;;;;;7.95;67.52;101746.22;1742244;82;25776;-62
2022/11/15 07:13:32;;;;;;;17.57;9.93;;;;;;;8.00;66.47;101741.91;1767967;81;25732;-62
2022/11/15 07:16:17;;;;;;;13.45;9.48;;;;;;;8.05;66.13;101741.63;1768014;81;27465;-62
2022/11/15 07:19:03;;;;;;;16.55;10.40;;;;;;;8.11;65.79;101744.76;1767676;80;25858;-62
2022/11/15 07:21:48;;;;;;;19.10;10.50;;;;;;;8.18;66.54;101739.03;1729959;81;25828;-62
2022/11/15 07:24:33;;;;;;;13.22;8.90;;;;;;;8.25;66.44;101733.17;1729688;82;25504;-61
2022/11/15 07:27:18;;;;;;;14.90;8.80;;;;;;;8.35;66.05;101733.92;1736829;82;25723;-61
2022/11/15 07:30:05;;;;;;;16.35;8.55;;;;;;;8.41;65.82;101731.72;1736777;82;27450;-61
2022/11/15 07:33:00;;;;;;;11.97;8.03;;;;;;;8.47;66.17;101721.11;1705808;83;25891;-61
2022/11/15 07:35:48;;;;;;;19.67;10.15;;;;;;;8.57;65.49;101717.34;1737275;81;25668;-61
2022/11/15 07:38:35;;;;;;;17.80;10.60;;;;;;;8.64;64.88;101717.34;1705799;83;25792;-62
2022/11/15 07:41:20;;;;;;;15.83;9.40;;;;;;;8.71;65.34;101708.39;1736679;81;27283;-61
2022/11/15 07:44:05;;;;;;;16.65;7.50;;;;;;;8.82;63.50;101713.07;1705733;84;29667;-61
2022/11/15 07:46:50;;;;;;;18.07;7.50;;;;;;;8.82;62.14;101713.07;1736557;82;25872;-61
2022/11/15 07:49:36;;;;;;;17.37;8.08;;;;;;;8.80;61.53;101703.77;1715883;82;25854;-61
2022/11/15 07:52:21;;;;;;;14.47;8.00;;;;;;;8.77;61.80;101705.33;1723613;83;25778;-61
2022/11/15 07:55:08;;;;;;;18.00;7.92;;;;;;;8.83;61.32;101706.75;1722280;82;25757;-62
2022/11/15 07:57:55;;;;;;;14.87;7.28;;;;;;;8.86;61.35;101706.52;1717715;82;27488;-62
2022/11/15 08:00:40;;;;;;;23.15;7.70;;;;;;;8.87;61.10;101705.10;1713675;83;25553;-61
2022/11/15 08:03:26;;;;;;;10.85;7.37;;;;;;;8.89;62.19;101698.28;1721125;83;25731;-62
2022/11/15 08:06:11;;;;;;;20.77;7.20;;;;;;;8.98;61.22;101700.34;1719647;83;25796;-62
2022/11/15 08:08:56;;;;;;;12.85;6.50;;;;;;;9.10;60.40;101696.47;1716965;83;26572;-62
2022/11/15 08:11:41;;;;;;;15.38;6.75;;;;;;;9.12;60.50;101694.05;1699818;84;27514;-62
2022/11/15 08:14:26;;;;;;;13.40;6.70;;;;;;;9.18;60.54;101694.12;1724474;83;25849;-62
2022/11/15 08:17:12;;;;;;;11.63;6.25;;;;;;;9.23;60.73;101693.31;1705806;82;25774;-62
2022/11/15 08:19:57;;;;;;;11.03;6.10;;;;;;;9.26;59.98;101685.05;1716656;81;25964;-62
2022/11/15 08:22:42;;;;;;;9.03;6.40;;;;;;;9.28;60.42;101687.13;1723813;83;25728;-62
2022/11/15 08:25:30;;;;;;;8.23;5.87;;;;;;;9.33;60.26;101689.03;1723706;82;28306;-61
2022/11/15 08:28:17;;;;;;;8.60;5.33;;;;;;;9.34;60.21;101693.91;1723002;83;25770;-61
2022/11/15 08:31:04;;;;;;;8.58;5.83;;;;;;;9.33;60.50;101685.00;1723214;83;25751;-61
2022/11/15 08:33:49;;;;;;;8.88;5.20;;;;;;;9.36;60.47;101683.92;1723023;83;25727;-62
2022/11/15 08:36:34;;;;;;;9.55;5.87;;;;;;;9.45;60.74;101674.39;1723282;83;26384;-61
2022/11/15 08:39:19;;;;;;;10.53;5.80;;;;;;;9.50;59.83;101678.95;1717886;83;29608;-62
2022/11/15 08:42:04;;;;;;;13.10;5.97;;;;;;;9.48;60.50;101673.69;1725890;82;25825;-61
2022/11/15 08:44:49;;;;;;;9.80;5.53;;;;;;;9.53;60.45;101664.81;1727515;82;26119;-62
2022/11/15 08:47:35;;;;;;;7.45;5.03;;;;;;;9.61;60.76;101656.69;1732025;82;25734;-62
2022/11/15 08:50:21;;;;;;;8.38;5.42;;;;;;;9.75;60.33;101651.22;1726007;82;25549;-62
2022/11/15 08:53:08;;;;;;;10.95;5.47;;;;;;;9.81;60.16;101641.37;1726143;81;28411;-62
2022/11/15 08:55:54;;;;;;;10.55;5.30;;;;;;;9.89;60.12;101638.61;1719620;82;25786;-62
2022/11/15 08:58:40;;;;;;;5.35;4.65;;;;;;;9.93;59.63;101640.13;1728953;82;25753;-62
2022/11/15 09:01:25;;;;;;;10.40;5.10;;;;;;;9.99;59.49;101634.30;1729771;82;25735;-61
2022/11/15 09:04:10;;;;;;;6.20;5.08;;;;;;;10.01;59.24;101624.30;1727506;82;25936;-62
2022/11/15 09:06:56;;;;;;;9.58;5.90;;;;;;;10.06;58.63;101633.37;1726795;82;27646;-62
2022/11/15 09:09:42;;;;;;;8.75;5.20;;;;;;;10.00;58.94;101633.33;1731027;82;26262;-61
2022/11/15 09:12:27;;;;;;;8.65;6.25;;;;;;;9.99;58.98;101624.41;1729504;82;25788;-61
2022/11/15 09:15:12;;;;;;;7.90;5.05;;;;;;;10.03;59.05;101614.30;1726390;82;25752;-62
2022/11/15 09:18:00;;;;;;;15.70;5.58;;;;;;;10.03;59.18;101621.86;1725353;82;25792;-61
2022/11/15 09:20:45;;;;;;;9.15;5.35;;;;;;;10.08;59.19;101609.92;1732653;82;27555;-62
2022/11/15 09:23:30;;;;;;;8.45;5.75;;;;;;;10.16;58.77;101608.38;1730765;82;25775;-62
2022/11/15 09:26:15;;;;;;;16.90;6.17;;;;;;;10.21;58.62;101608.54;1731341;81;25724;-60
2022/11/15 09:29:01;;;;;;;16.20;5.67;;;;;;;10.22;58.67;101598.16;1726026;83;25731;-60
2022/11/15 09:31:46;;;;;;;14.18;5.65;;;;;;;10.27;59.03;101599.50;1726062;83;25759;-61
2022/11/15 09:34:32;;;;;;;8.28;4.85;;;;;;;10.36;58.93;101595.75;1719830;83;27474;-60
2022/11/15 09:37:17;;;;;;;7.33;5.28;;;;;;;10.47;58.17;101591.81;1710801;83;25923;-60
2022/11/15 09:40:04;;;;;;;9.20;4.92;;;;;;;10.48;58.29;101578.74;1711436;83;25754;-61
2022/11/15 09:43:16;;;;;;;8.10;5.40;;;;;;;10.54;58.53;101575.58;1707276;82;25813;-61
2022/11/15 09:46:10;;;;;;;12.98;4.72;;;;;;;10.64;58.38;101573.91;1708451;83;25831;-61
2022/11/15 09:49:01;;;;;;;6.67;4.90;;;;;;;10.75;57.82;101564.16;1710486;83;28336;-61
2022/11/15 09:51:35;;;;;;;16.17;5.80;;;;;;;10.74;57.91;101558.41;1712963;83;25820;-61
2022/11/15 09:54:14;;;;;;;9.28;5.45;;;;;;;10.73;57.52;101553.52;1708913;82;26454;-61
2022/11/15 09:56:44;;;;;;;8.50;6.17;;;;;;;10.70;57.92;101550.22;1710015;83;26125;-61
2022/11/15 09:59:29;;;;;;;13.18;5.10;;;;;;;10.71;58.51;101542.52;1708021;83;25819;-61
2022/11/15 10:02:18;;;;;;;14.23;5.50;;;;;;;10.78;58.02;101539.71;1702559;83;27497;-61
2022/11/15 10:04:46;;;;;;;8.88;5.17;;;;;;;10.87;58.16;101534.09;1712564;83;25776;-61
2022/11/15 10:07:36;;;;;;;10.93;4.72;;;;;;;10.93;58.01;101524.20;1716336;82;25732;-61
2022/11/15 10:10:26;;;;;;;14.93;5.30;;;;;;;10.99;58.19;101524.19;1711380;82;25799;-61
2022/11/15 10:12:54;;;;;;;6.05;4.62;;;;;;;11.02;57.62;101518.10;1690271;84;25815;-61
2022/11/15 10:15:25;;;;;;;12.28;5.22;;;;;;;11.03;57.59;101516.25;1719873;83;27488;-61
2022/11/15 10:18:28;;;;;;;13.00;5.55;;;;;;;11.02;57.38;101506.45;1721534;82;25811;-61
2022/11/15 10:21:02;;;;;;;9.25;4.53;;;;;;;11.01;57.81;101496.19;1727587;82;25507;-61
2022/11/15 10:23:32;;;;;;;9.13;4.53;;;;;;;11.03;57.45;101500.94;1724331;82;25734;-61
2022/11/15 10:26:00;;;;;;;12.43;6.15;;;;;;;11.03;57.32;101495.55;1706714;81;25862;-62
2022/11/15 10:28:30;;;;;;;7.78;5.00;;;;;;;11.00;57.39;101494.48;1750992;81;28164;-61
2022/11/15 10:31:00;;;;;;;12.37;5.83;;;;;;;10.98;57.75;101494.23;1750517;81;26109;-61
2022/11/15 10:33:37;;;;;;;10.72;5.40;;;;;;;10.97;58.18;101485.28;1750794;81;25785;-61
2022/11/15 10:36:19;;;;;;;11.85;5.90;;;;;;;11.02;58.07;101483.10;1750574;81;26316;-61
2022/11/15 10:38:54;;;;;;;9.03;5.30;;;;;;;11.03;57.47;101485.30;1750844;81;25807;-61
2022/11/15 10:41:35;;;;;;;6.97;5.25;;;;;;;10.94;57.65;101486.39;1750328;81;27455;-61
2022/11/15 10:44:26;;;;;;;14.00;5.03;;;;;;;10.89;57.86;101479.15;1750638;81;25782;-61
2022/11/15 10:47:04;;;;;;;7.83;5.50;;;;;;;10.90;58.47;101475.98;1750162;81;25734;-61
2022/11/15 10:49:33;;;;;;;9.20;5.50;;;;;;;10.95;57.93;101473.30;1751107;81;25840;-61
2022/11/15 10:52:18;;;;;;;8.25;5.87;;;;;;;10.90;58.13;101475.48;1750801;81;25676;-62
2022/11/15 10:54:53;;;;;;;12.47;6.00;;;;;;;10.88;57.83;101473.42;1746789;81;27501;-62
2022/11/15 10:57:26;;;;;;;13.95;5.53;;;;;;;10.86;58.06;101467.77;1745445;82;25779;-62
2022/11/15 10:59:58;;;;;;;7.35;4.92;;;;;;;10.86;57.85;101460.56;1745362;81;25689;-62
2022/11/15 11:02:42;;;;;;;14.65;6.50;;;;;;;10.85;57.97;101462.05;1746157;82;26177;-62
2022/11/15 11:05:34;;;;;;;9.78;5.47;;;;;;;10.83;58.02;101462.14;1745943;81;25743;-62
2022/11/15 11:08:06;;;;;;;9.23;5.05;;;;;;;10.85;57.82;101451.28;1754276;80;27544;-61
2022/11/15 11:10:34;;;;;;;9.73;6.30;;;;;;;10.83;58.03;101454.07;1772417;80;25912;-61
2022/11/15 11:13:26;;;;;;;8.73;6.28;;;;;;;10.78;58.37;101457.63;1775369;79;25770;-62
2022/11/15 11:16:01;;;;;;;7.05;5.20;;;;;;;10.77;58.40;101450.02;1693044;83;26213;-61
2022/11/15 11:18:38;;;;;;;9.98;5.97;;;;;;;10.78;58.54;101441.48;1744894;80;25867;-62
2022/11/15 11:21:17;;;;;;;8.88;6.00;;;;;;;10.80;58.55;101432.30;1745510;82;27445;-62
2022/11/15 11:23:54;;;;;;;10.18;5.67;;;;;;;10.85;58.38;101434.63;1748471;81;25698;-61
2022/11/15 11:26:46;;;;;;;13.13;6.05;;;;;;;10.77;58.29;101424.96;1751157;80;25787;-62
2022/11/15 11:29:45;;;;;;;10.43;6.00;;;;;;;10.78;58.01;101418.09;1778515;80;25771;-61
2022/11/15 11:32:38;;;;;;;8.58;5.72;;;;;;;10.77;58.41;101412.84;1698290;83;25846;-62
2022/11/15 11:35:51;;;;;;;9.53;6.00;;;;;;;10.77;58.39;101412.84;1775672;80;27469;-62
2022/11/15 11:38:32;;;;;;;11.95;6.12;;;;;;;10.73;58.51;101410.02;1778514;80;25699;-61
2022/11/15 11:41:26;;;;;;;10.70;6.37;;;;;;;10.72;58.94;101407.83;1778375;80;25716;-61
2022/11/15 11:44:34;;;;;;;14.15;6.37;;;;;;;10.70;59.11;101404.90;1777845;80;25724;-61
2022/11/15 11:47:12;;;;;;;13.43;6.08;;;;;;;10.67;58.94;101394.37;1724822;81;25679;-61
2022/11/15 11:49:55;;;;;;;10.70;6.42;;;;;;;10.64;58.75;101393.63;1734197;81;27637;-61
2022/11/15 11:52:33;;;;;;;10.88;6.58;;;;;;;10.60;59.00;101392.17;1722029;82;25706;-62
2022/11/15 11:55:26;;;;;;;16.17;6.53;;;;;;;10.57;59.18;101380.80;1750638;81;25719;-61
2022/11/15 11:58:20;;;;;;;12.90;7.28;;;;;;;10.55;59.61;101383.59;1756328;80;25678;-61
2022/11/15 12:01:17;;;;;;;17.32;6.42;;;;;;;10.59;59.49;101374.78;1759939;81;30982;-61
2022/11/15 12:03:57;;;;;;;11.33;6.85;;;;;;;10.58;59.60;101376.63;1728025;83;27491;-62
2022/11/15 12:06:47;;;;;;;10.70;6.40;;;;;;;10.61;59.53;101368.80;1727948;81;25756;-62
2022/11/15 12:09:37;;;;;;;11.48;7.20;;;;;;;10.60;59.54;101362.58;1768785;80;25701;-62
2022/11/15 12:12:36;;;;;;;7.55;5.90;;;;;;;10.63;59.82;101358.78;1778306;80;25787;-61
2022/11/15 12:15:26;;;;;;;10.65;6.50;;;;;;;10.68;59.57;101357.07;1778587;80;25620;-62
2022/11/15 12:17:57;;;;;;;11.12;5.80;;;;;;;10.72;59.49;101352.66;1774039;80;28228;-61
2022/11/15 12:20:37;;;;;;;9.93;5.83;;;;;;;10.78;59.20;101349.47;1740721;81;25465;-61
2022/11/15 12:23:28;;;;;;;10.80;6.30;;;;;;;10.79;59.26;101344.45;1739720;81;25772;-62
2022/11/15 12:26:06;;;;;;;11.48;6.20;;;;;;;10.79;58.86;101342.27;1727656;83;25798;-62
2022/11/15 12:28:44;;;;;;;12.70;6.15;;;;;;;10.76;59.10;101335.27;1727592;83;25786;-61
2022/11/15 12:31:37;;;;;;;11.40;5.45;;;;;;;10.74;59.38;101333.22;1728026;82;27659;-62
2022/11/15 12:34:24;;;;;;;9.98;5.78;;;;;;;10.76;59.44;101333.93;1706956;82;25794;-61
2022/11/15 12:36:52;;;;;;;14.58;5.40;;;;;;;10.76;59.34;101327.70;1707663;83;25754;-62
2022/11/15 12:39:20;;;;;;;13.70;5.62;;;;;;;10.74;59.31;101322.45;1707362;82;25695;-62
2022/11/15 12:42:01;;;;;;;10.82;6.12;;;;;;;10.75;59.50;101319.27;1707531;84;25993;-62
2022/11/15 12:44:40;;;;;;;11.35;6.40;;;;;;;10.78;59.61;101310.45;1707303;83;29620;-61
2022/11/15 12:47:23;;;;;;;12.07;6.85;;;;;;;10.79;59.41;101308.13;1729223;81;25789;-61
2022/11/15 12:49:51;;;;;;;10.48;6.62;;;;;;;10.78;59.54;101313.14;1733590;82;30077;-61
2022/11/15 12:52:19;;;;;;;9.15;6.12;;;;;;;10.75;59.44;101309.38;1733277;82;25818;-61
2022/11/15 12:54:54;;;;;;;8.55;5.87;;;;;;;10.72;59.59;101305.57;1736644;81;25791;-61
2022/11/15 12:57:38;;;;;;;10.30;5.45;;;;;;;10.73;59.82;101299.69;1736794;81;27471;-62
2022/11/15 13:00:16;;;;;;;12.15;6.85;;;;;;;10.75;59.93;101300.42;1736710;81;25868;-61